sensor_id;sensor_type;location;lat;lon;timestamp;P1;durP1;ratioP1;P2;durP2;ratioP2
20348;SDS011;10332;50.208;18.988;2023-09-19T00:00:51;12.85;;;9.95;;
20348;SDS011;10332;50.208;18.988;2023-09-19T00:03:37;11.93;;;10.02;;
20348;SDS011;10332;50.208;18.988;2023-09-19T00:06:05;11.95;;;9.30;;
20348;SDS011;10332;50.208;18.988;2023-09-19T00:08:35;12.38;;;9.05;;
20348;SDS011;10332;50.208;18.988;2023-09-19T00:11:02;10.90;;;9.75;;
20348;SDS011;10332;50.208;18.988;2023-09-19T00:13:30;12.00;;;10.13;;
20348;SDS011;10332;50.208;18.988;2023-09-19T00:16:09;9.45;;;8.52;;
20348;SDS011;10332;50.208;18.988;2023-09-19T00:18:38;10.48;;;9.38;;
20348;SDS011;10332;50.208;18.988;2023-09-19T00:21:06;10.82;;;9.40;;
20348;SDS011;10332;50.208;18.988;2023-09-19T00:23:34;10.25;;;9.18;;
20348;SDS011;10332;50.208;18.988;2023-09-19T00:26:01;10.85;;;9.65;;
20348;SDS011;10332;50.208;18.988;2023-09-19T00:28:29;10.63;;;9.57;;
20348;SDS011;10332;50.208;18.988;2023-09-19T00:30:57;10.98;;;8.73;;
20348;SDS011;10332;50.208;18.988;2023-09-19T00:33:26;10.60;;;9.60;;
20348;SDS011;10332;50.208;18.988;2023-09-19T00:35:56;11.27;;;8.82;;
20348;SDS011;10332;50.208;18.988;2023-09-19T00:38:24;10.65;;;9.55;;
20348;SDS011;10332;50.208;18.988;2023-09-19T00:40:54;10.68;;;9.13;;
20348;SDS011;10332;50.208;18.988;2023-09-19T00:43:26;9.77;;;8.77;;
20348;SDS011;10332;50.208;18.988;2023-09-19T00:45:55;12.48;;;10.07;;
20348;SDS011;10332;50.208;18.988;2023-09-19T00:48:24;11.75;;;9.60;;
20348;SDS011;10332;50.208;18.988;2023-09-19T00:50:57;11.50;;;9.98;;
20348;SDS011;10332;50.208;18.988;2023-09-19T00:53:28;10.45;;;9.23;;
20348;SDS011;10332;50.208;18.988;2023-09-19T00:55:58;10.45;;;9.35;;
20348;SDS011;10332;50.208;18.988;2023-09-19T00:58:25;12.00;;;9.23;;
20348;SDS011;10332;50.208;18.988;2023-09-19T01:00:53;12.30;;;9.98;;
20348;SDS011;10332;50.208;18.988;2023-09-19T01:03:20;10.55;;;9.40;;
20348;SDS011;10332;50.208;18.988;2023-09-19T01:05:50;10.93;;;9.82;;
20348;SDS011;10332;50.208;18.988;2023-09-19T01:08:17;9.90;;;8.90;;
20348;SDS011;10332;50.208;18.988;2023-09-19T01:17:03;10.60;;;9.40;;
20348;SDS011;10332;50.208;18.988;2023-09-19T01:19:50;14.18;;;10.10;;
20348;SDS011;10332;50.208;18.988;2023-09-19T01:28:09;9.55;;;8.60;;
20348;SDS011;10332;50.208;18.988;2023-09-19T01:30:43;10.05;;;9.05;;
20348;SDS011;10332;50.208;18.988;2023-09-19T01:33:11;10.90;;;9.80;;
20348;SDS011;10332;50.208;18.988;2023-09-19T01:35:38;10.18;;;9.00;;
20348;SDS011;10332;50.208;18.988;2023-09-19T01:38:06;11.18;;;9.45;;
20348;SDS011;10332;50.208;18.988;2023-09-19T01:40:41;11.20;;;9.25;;
20348;SDS011;10332;50.208;18.988;2023-09-19T01:51:14;9.60;;;8.60;;
20348;SDS011;10332;50.208;18.988;2023-09-19T01:56:25;10.13;;;9.13;;
20348;SDS011;10332;50.208;18.988;2023-09-19T01:59:01;11.55;;;10.23;;
20348;SDS011;10332;50.208;18.988;2023-09-19T02:01:33;10.32;;;9.32;;
20348;SDS011;10332;50.208;18.988;2023-09-19T02:04:05;10.48;;;9.10;;
20348;SDS011;10332;50.208;18.988;2023-09-19T02:06:34;9.27;;;8.27;;
20348;SDS011;10332;50.208;18.988;2023-09-19T02:09:02;10.38;;;8.40;;
20348;SDS011;10332;50.208;18.988;2023-09-19T02:11:30;11.90;;;9.35;;
20348;SDS011;10332;50.208;18.988;2023-09-19T02:13:58;12.95;;;10.35;;
20348;SDS011;10332;50.208;18.988;2023-09-19T02:16:26;9.23;;;8.32;;
20348;SDS011;10332;50.208;18.988;2023-09-19T02:18:53;11.30;;;9.52;;
20348;SDS011;10332;50.208;18.988;2023-09-19T02:21:21;10.95;;;9.75;;
20348;SDS011;10332;50.208;18.988;2023-09-19T02:23:48;10.80;;;9.70;;
20348;SDS011;10332;50.208;18.988;2023-09-19T02:26:15;11.25;;;10.05;;
20348;SDS011;10332;50.208;18.988;2023-09-19T02:28:43;10.82;;;9.20;;
20348;SDS011;10332;50.208;18.988;2023-09-19T02:31:12;10.38;;;9.13;;
20348;SDS011;10332;50.208;18.988;2023-09-19T02:33:40;11.80;;;10.25;;
20348;SDS011;10332;50.208;18.988;2023-09-19T02:36:07;11.27;;;9.93;;
20348;SDS011;10332;50.208;18.988;2023-09-19T02:38:35;13.35;;;10.35;;
20348;SDS011;10332;50.208;18.988;2023-09-19T02:41:03;12.75;;;10.30;;
20348;SDS011;10332;50.208;18.988;2023-09-19T02:43:31;9.50;;;8.48;;
20348;SDS011;10332;50.208;18.988;2023-09-19T02:45:58;11.75;;;10.25;;
20348;SDS011;10332;50.208;18.988;2023-09-19T02:48:25;12.18;;;10.35;;
20348;SDS011;10332;50.208;18.988;2023-09-19T02:50:53;14.05;;;11.68;;
20348;SDS011;10332;50.208;18.988;2023-09-19T02:53:20;10.90;;;9.30;;
20348;SDS011;10332;50.208;18.988;2023-09-19T02:55:49;12.68;;;11.18;;
20348;SDS011;10332;50.208;18.988;2023-09-19T02:58:16;11.98;;;10.70;;
20348;SDS011;10332;50.208;18.988;2023-09-19T03:00:45;11.40;;;10.20;;
20348;SDS011;10332;50.208;18.988;2023-09-19T03:03:16;12.63;;;11.32;;
20348;SDS011;10332;50.208;18.988;2023-09-19T03:05:44;12.50;;;11.20;;
20348;SDS011;10332;50.208;18.988;2023-09-19T03:08:14;12.95;;;11.02;;
20348;SDS011;10332;50.208;18.988;2023-09-19T03:10:42;13.38;;;11.70;;
20348;SDS011;10332;50.208;18.988;2023-09-19T03:13:09;14.85;;;11.60;;
20348;SDS011;10332;50.208;18.988;2023-09-19T03:15:40;13.75;;;12.07;;
20348;SDS011;10332;50.208;18.988;2023-09-19T03:18:10;14.40;;;12.77;;
20348;SDS011;10332;50.208;18.988;2023-09-19T03:20:38;16.33;;;13.43;;
20348;SDS011;10332;50.208;18.988;2023-09-19T03:23:05;15.65;;;13.05;;
20348;SDS011;10332;50.208;18.988;2023-09-19T03:25:36;15.57;;;13.23;;
20348;SDS011;10332;50.208;18.988;2023-09-19T03:28:03;14.27;;;12.55;;
20348;SDS011;10332;50.208;18.988;2023-09-19T03:30:34;14.98;;;12.85;;
20348;SDS011;10332;50.208;18.988;2023-09-19T03:33:01;15.18;;;12.07;;
20348;SDS011;10332;50.208;18.988;2023-09-19T03:35:28;16.83;;;13.73;;
20348;SDS011;10332;50.208;18.988;2023-09-19T03:37:56;18.42;;;15.88;;
20348;SDS011;10332;50.208;18.988;2023-09-19T03:40:23;15.98;;;14.27;;
20348;SDS011;10332;50.208;18.988;2023-09-19T03:42:52;19.85;;;17.30;;
20348;SDS011;10332;50.208;18.988;2023-09-19T03:45:19;19.20;;;16.67;;
20348;SDS011;10332;50.208;18.988;2023-09-19T03:47:47;17.17;;;14.68;;
20348;SDS011;10332;50.208;18.988;2023-09-19T03:50:14;19.02;;;15.20;;
20348;SDS011;10332;50.208;18.988;2023-09-19T03:52:44;15.77;;;13.60;;
20348;SDS011;10332;50.208;18.988;2023-09-19T03:55:12;17.85;;;15.95;;
20348;SDS011;10332;50.208;18.988;2023-09-19T03:57:39;17.73;;;14.02;;
20348;SDS011;10332;50.208;18.988;2023-09-19T04:00:06;17.70;;;14.25;;
20348;SDS011;10332;50.208;18.988;2023-09-19T04:02:39;21.30;;;17.05;;
20348;SDS011;10332;50.208;18.988;2023-09-19T04:05:06;20.88;;;17.17;;
20348;SDS011;10332;50.208;18.988;2023-09-19T04:07:34;21.92;;;18.60;;
20348;SDS011;10332;50.208;18.988;2023-09-19T04:10:02;18.55;;;16.55;;
20348;SDS011;10332;50.208;18.988;2023-09-19T04:12:30;21.73;;;17.50;;
20348;SDS011;10332;50.208;18.988;2023-09-19T04:14:57;23.35;;;20.00;;
20348;SDS011;10332;50.208;18.988;2023-09-19T04:17:25;18.15;;;16.23;;
20348;SDS011;10332;50.208;18.988;2023-09-19T04:19:52;21.42;;;17.70;;
20348;SDS011;10332;50.208;18.988;2023-09-19T04:22:20;22.75;;;18.90;;
20348;SDS011;10332;50.208;18.988;2023-09-19T04:24:47;26.10;;;19.05;;
20348;SDS011;10332;50.208;18.988;2023-09-19T04:27:15;18.35;;;16.20;;
20348;SDS011;10332;50.208;18.988;2023-09-19T04:29:42;25.23;;;19.90;;
20348;SDS011;10332;50.208;18.988;2023-09-19T04:32:10;22.85;;;19.23;;
20348;SDS011;10332;50.208;18.988;2023-09-19T04:34:37;21.33;;;17.83;;
20348;SDS011;10332;50.208;18.988;2023-09-19T04:37:07;21.65;;;17.90;;
20348;SDS011;10332;50.208;18.988;2023-09-19T04:39:34;27.70;;;19.52;;
20348;SDS011;10332;50.208;18.988;2023-09-19T04:42:02;23.85;;;19.60;;
20348;SDS011;10332;50.208;18.988;2023-09-19T04:44:30;24.98;;;21.55;;
20348;SDS011;10332;50.208;18.988;2023-09-19T04:46:58;24.23;;;20.20;;
20348;SDS011;10332;50.208;18.988;2023-09-19T04:49:26;21.77;;;18.85;;
20348;SDS011;10332;50.208;18.988;2023-09-19T04:51:53;24.15;;;19.90;;
20348;SDS011;10332;50.208;18.988;2023-09-19T04:54:22;22.73;;;17.45;;
20348;SDS011;10332;50.208;18.988;2023-09-19T04:56:50;21.88;;;18.13;;
20348;SDS011;10332;50.208;18.988;2023-09-19T04:59:17;22.20;;;19.73;;
20348;SDS011;10332;50.208;18.988;2023-09-19T05:01:44;23.73;;;21.20;;
20348;SDS011;10332;50.208;18.988;2023-09-19T05:04:11;24.00;;;19.45;;
20348;SDS011;10332;50.208;18.988;2023-09-19T05:06:40;24.70;;;20.60;;
20348;SDS011;10332;50.208;18.988;2023-09-19T05:09:10;25.45;;;20.80;;
20348;SDS011;10332;50.208;18.988;2023-09-19T05:11:37;24.70;;;22.05;;
20348;SDS011;10332;50.208;18.988;2023-09-19T05:14:05;27.08;;;22.10;;
20348;SDS011;10332;50.208;18.988;2023-09-19T05:16:32;23.73;;;19.98;;
20348;SDS011;10332;50.208;18.988;2023-09-19T05:19:01;24.50;;;20.63;;
20348;SDS011;10332;50.208;18.988;2023-09-19T05:21:30;28.50;;;23.75;;
20348;SDS011;10332;50.208;18.988;2023-09-19T05:23:57;25.52;;;21.52;;
20348;SDS011;10332;50.208;18.988;2023-09-19T05:26:25;21.98;;;19.35;;
20348;SDS011;10332;50.208;18.988;2023-09-19T05:28:52;25.10;;;20.73;;
20348;SDS011;10332;50.208;18.988;2023-09-19T05:31:20;24.33;;;21.08;;
20348;SDS011;10332;50.208;18.988;2023-09-19T05:33:47;21.55;;;19.30;;
20348;SDS011;10332;50.208;18.988;2023-09-19T05:36:15;24.77;;;20.33;;
20348;SDS011;10332;50.208;18.988;2023-09-19T05:38:42;25.40;;;20.42;;
20348;SDS011;10332;50.208;18.988;2023-09-19T05:41:11;24.92;;;19.65;;
20348;SDS011;10332;50.208;18.988;2023-09-19T05:43:40;25.52;;;19.67;;
20348;SDS011;10332;50.208;18.988;2023-09-19T05:46:09;25.90;;;20.23;;
20348;SDS011;10332;50.208;18.988;2023-09-19T05:48:36;25.27;;;19.85;;
20348;SDS011;10332;50.208;18.988;2023-09-19T05:51:06;22.73;;;19.90;;
20348;SDS011;10332;50.208;18.988;2023-09-19T05:53:33;30.42;;;26.20;;
20348;SDS011;10332;50.208;18.988;2023-09-19T05:56:01;35.83;;;27.45;;
20348;SDS011;10332;50.208;18.988;2023-09-19T05:58:28;33.10;;;23.52;;
20348;SDS011;10332;50.208;18.988;2023-09-19T06:00:56;24.20;;;21.08;;
20348;SDS011;10332;50.208;18.988;2023-09-19T06:03:24;29.90;;;24.08;;
20348;SDS011;10332;50.208;18.988;2023-09-19T06:05:52;37.22;;;27.80;;
20348;SDS011;10332;50.208;18.988;2023-09-19T06:08:23;22.65;;;17.77;;
20348;SDS011;10332;50.208;18.988;2023-09-19T06:10:53;23.15;;;16.48;;
20348;SDS011;10332;50.208;18.988;2023-09-19T06:13:20;20.00;;;15.68;;
20348;SDS011;10332;50.208;18.988;2023-09-19T06:15:48;26.23;;;19.20;;
20348;SDS011;10332;50.208;18.988;2023-09-19T06:18:16;21.33;;;18.83;;
20348;SDS011;10332;50.208;18.988;2023-09-19T06:20:47;29.08;;;21.45;;
20348;SDS011;10332;50.208;18.988;2023-09-19T06:23:17;29.60;;;23.83;;
20348;SDS011;10332;50.208;18.988;2023-09-19T06:25:47;20.73;;;17.77;;
20348;SDS011;10332;50.208;18.988;2023-09-19T06:28:15;16.90;;;15.10;;
20348;SDS011;10332;50.208;18.988;2023-09-19T06:30:45;17.40;;;13.90;;
20348;SDS011;10332;50.208;18.988;2023-09-19T06:33:13;20.67;;;15.48;;
20348;SDS011;10332;50.208;18.988;2023-09-19T06:35:45;17.27;;;13.48;;
20348;SDS011;10332;50.208;18.988;2023-09-19T06:38:13;16.27;;;13.77;;
20348;SDS011;10332;50.208;18.988;2023-09-19T06:40:42;15.45;;;13.00;;
20348;SDS011;10332;50.208;18.988;2023-09-19T06:43:10;17.77;;;13.75;;
20348;SDS011;10332;50.208;18.988;2023-09-19T06:45:38;31.67;;;24.23;;
20348;SDS011;10332;50.208;18.988;2023-09-19T06:48:05;21.70;;;16.15;;
20348;SDS011;10332;50.208;18.988;2023-09-19T06:50:34;18.00;;;15.13;;
20348;SDS011;10332;50.208;18.988;2023-09-19T06:53:02;11.48;;;9.70;;
20348;SDS011;10332;50.208;18.988;2023-09-19T06:55:30;10.27;;;8.90;;
20348;SDS011;10332;50.208;18.988;2023-09-19T06:57:59;11.07;;;7.95;;
20348;SDS011;10332;50.208;18.988;2023-09-19T07:00:27;10.55;;;7.72;;
20348;SDS011;10332;50.208;18.988;2023-09-19T07:05:28;10.57;;;7.72;;
20348;SDS011;10332;50.208;18.988;2023-09-19T07:07:56;7.90;;;6.40;;
20348;SDS011;10332;50.208;18.988;2023-09-19T07:10:28;11.52;;;6.35;;
20348;SDS011;10332;50.208;18.988;2023-09-19T07:12:56;9.13;;;6.53;;
20348;SDS011;10332;50.208;18.988;2023-09-19T07:15:28;8.55;;;6.15;;
20348;SDS011;10332;50.208;18.988;2023-09-19T07:17:57;7.60;;;5.05;;
20348;SDS011;10332;50.208;18.988;2023-09-19T07:20:25;6.70;;;5.15;;
20348;SDS011;10332;50.208;18.988;2023-09-19T07:22:53;6.68;;;5.20;;
20348;SDS011;10332;50.208;18.988;2023-09-19T07:25:22;7.22;;;4.57;;
20348;SDS011;10332;50.208;18.988;2023-09-19T07:27:50;4.97;;;4.05;;
20348;SDS011;10332;50.208;18.988;2023-09-19T07:30:18;4.57;;;3.78;;
20348;SDS011;10332;50.208;18.988;2023-09-19T07:32:45;6.13;;;4.15;;
20348;SDS011;10332;50.208;18.988;2023-09-19T07:35:12;7.45;;;4.20;;
20348;SDS011;10332;50.208;18.988;2023-09-19T07:37:40;10.50;;;4.25;;
20348;SDS011;10332;50.208;18.988;2023-09-19T07:40:08;8.10;;;4.43;;
20348;SDS011;10332;50.208;18.988;2023-09-19T07:42:38;7.18;;;3.60;;
20348;SDS011;10332;50.208;18.988;2023-09-19T07:45:08;4.93;;;3.30;;
20348;SDS011;10332;50.208;18.988;2023-09-19T07:47:35;4.38;;;3.47;;
20348;SDS011;10332;50.208;18.988;2023-09-19T07:50:03;5.65;;;3.25;;
20348;SDS011;10332;50.208;18.988;2023-09-19T07:52:31;10.27;;;3.85;;
20348;SDS011;10332;50.208;18.988;2023-09-19T07:55:00;7.78;;;4.38;;
20348;SDS011;10332;50.208;18.988;2023-09-19T07:57:32;7.05;;;4.35;;
20348;SDS011;10332;50.208;18.988;2023-09-19T08:00:01;7.20;;;4.55;;
20348;SDS011;10332;50.208;18.988;2023-09-19T08:02:34;7.80;;;4.25;;
20348;SDS011;10332;50.208;18.988;2023-09-19T08:05:07;6.93;;;4.50;;
20348;SDS011;10332;50.208;18.988;2023-09-19T08:07:39;6.68;;;3.97;;
20348;SDS011;10332;50.208;18.988;2023-09-19T08:10:09;5.32;;;3.78;;
20348;SDS011;10332;50.208;18.988;2023-09-19T08:12:40;22.15;;;14.82;;
20348;SDS011;10332;50.208;18.988;2023-09-19T08:15:19;7.53;;;5.82;;
20348;SDS011;10332;50.208;18.988;2023-09-19T08:17:47;8.18;;;5.97;;
20348;SDS011;10332;50.208;18.988;2023-09-19T08:20:16;7.68;;;5.05;;
20348;SDS011;10332;50.208;18.988;2023-09-19T08:22:49;6.20;;;4.72;;
20348;SDS011;10332;50.208;18.988;2023-09-19T08:25:20;6.57;;;4.38;;
20348;SDS011;10332;50.208;18.988;2023-09-19T08:27:48;5.95;;;4.40;;
20348;SDS011;10332;50.208;18.988;2023-09-19T08:30:20;4.88;;;4.15;;
20348;SDS011;10332;50.208;18.988;2023-09-19T08:32:56;7.32;;;4.28;;
20348;SDS011;10332;50.208;18.988;2023-09-19T08:35:26;5.15;;;4.43;;
20348;SDS011;10332;50.208;18.988;2023-09-19T08:37:54;6.88;;;4.03;;
20348;SDS011;10332;50.208;18.988;2023-09-19T08:40:23;5.47;;;4.38;;
20348;SDS011;10332;50.208;18.988;2023-09-19T08:42:52;7.82;;;5.03;;
20348;SDS011;10332;50.208;18.988;2023-09-19T08:45:22;14.15;;;11.18;;
20348;SDS011;10332;50.208;18.988;2023-09-19T08:53:41;4.60;;;4.15;;
20348;SDS011;10332;50.208;18.988;2023-09-19T08:56:13;8.10;;;6.72;;
20348;SDS011;10332;50.208;18.988;2023-09-19T08:59:05;7.55;;;6.35;;
20348;SDS011;10332;50.208;18.988;2023-09-19T09:01:34;5.65;;;3.90;;
20348;SDS011;10332;50.208;18.988;2023-09-19T09:04:02;6.28;;;4.30;;
20348;SDS011;10332;50.208;18.988;2023-09-19T09:06:36;6.72;;;3.75;;
20348;SDS011;10332;50.208;18.988;2023-09-19T09:09:06;6.03;;;3.33;;
20348;SDS011;10332;50.208;18.988;2023-09-19T09:11:36;6.45;;;5.13;;
20348;SDS011;10332;50.208;18.988;2023-09-19T09:14:06;6.85;;;4.65;;
20348;SDS011;10332;50.208;18.988;2023-09-19T09:16:34;5.40;;;4.57;;
20348;SDS011;10332;50.208;18.988;2023-09-19T09:19:02;9.45;;;8.15;;
20348;SDS011;10332;50.208;18.988;2023-09-19T09:21:29;22.50;;;17.27;;
20348;SDS011;10332;50.208;18.988;2023-09-19T09:24:25;13.20;;;10.20;;
20348;SDS011;10332;50.208;18.988;2023-09-19T09:26:57;5.00;;;3.78;;
20348;SDS011;10332;50.208;18.988;2023-09-19T09:29:41;3.55;;;3.20;;
20348;SDS011;10332;50.208;18.988;2023-09-19T09:32:33;3.63;;;2.97;;
20348;SDS011;10332;50.208;18.988;2023-09-19T09:35:08;4.07;;;3.25;;
20348;SDS011;10332;50.208;18.988;2023-09-19T09:37:37;8.15;;;6.43;;
20348;SDS011;10332;50.208;18.988;2023-09-19T09:40:05;10.50;;;8.07;;
20348;SDS011;10332;50.208;18.988;2023-09-19T09:42:39;5.95;;;3.85;;
20348;SDS011;10332;50.208;18.988;2023-09-19T09:47:45;3.92;;;3.50;;
20348;SDS011;10332;50.208;18.988;2023-09-19T09:50:31;6.00;;;4.32;;
20348;SDS011;10332;50.208;18.988;2023-09-19T09:53:23;11.00;;;7.65;;
20348;SDS011;10332;50.208;18.988;2023-09-19T09:58:33;3.85;;;3.33;;
20348;SDS011;10332;50.208;18.988;2023-09-19T10:01:02;5.20;;;3.42;;
20348;SDS011;10332;50.208;18.988;2023-09-19T10:03:42;4.28;;;3.55;;
20348;SDS011;10332;50.208;18.988;2023-09-19T10:06:15;4.03;;;3.33;;
20348;SDS011;10332;50.208;18.988;2023-09-19T10:09:08;5.47;;;3.60;;
20348;SDS011;10332;50.208;18.988;2023-09-19T10:11:47;4.25;;;3.05;;
20348;SDS011;10332;50.208;18.988;2023-09-19T10:14:24;5.35;;;3.15;;
20348;SDS011;10332;50.208;18.988;2023-09-19T10:17:18;4.28;;;2.90;;
20348;SDS011;10332;50.208;18.988;2023-09-19T10:22:27;3.92;;;3.53;;
20348;SDS011;10332;50.208;18.988;2023-09-19T10:24:58;3.95;;;2.90;;
20348;SDS011;10332;50.208;18.988;2023-09-19T10:27:29;4.53;;;3.17;;
20348;SDS011;10332;50.208;18.988;2023-09-19T10:30:06;4.78;;;2.90;;
20348;SDS011;10332;50.208;18.988;2023-09-19T10:32:36;4.07;;;2.88;;
20348;SDS011;10332;50.208;18.988;2023-09-19T10:35:08;12.82;;;10.23;;
20348;SDS011;10332;50.208;18.988;2023-09-19T10:37:39;7.72;;;5.57;;
20348;SDS011;10332;50.208;18.988;2023-09-19T10:40:10;8.18;;;6.57;;
20348;SDS011;10332;50.208;18.988;2023-09-19T10:42:39;11.00;;;7.00;;
20348;SDS011;10332;50.208;18.988;2023-09-19T10:45:09;6.68;;;5.30;;
20348;SDS011;10332;50.208;18.988;2023-09-19T10:47:40;6.68;;;3.90;;
20348;SDS011;10332;50.208;18.988;2023-09-19T10:50:09;6.88;;;4.82;;
20348;SDS011;10332;50.208;18.988;2023-09-19T10:52:48;5.80;;;4.72;;
20348;SDS011;10332;50.208;18.988;2023-09-19T10:55:19;6.05;;;3.80;;
20348;SDS011;10332;50.208;18.988;2023-09-19T10:57:49;5.07;;;3.33;;
20348;SDS011;10332;50.208;18.988;2023-09-19T11:00:16;4.55;;;3.53;;
20348;SDS011;10332;50.208;18.988;2023-09-19T11:09:14;5.22;;;3.38;;
20348;SDS011;10332;50.208;18.988;2023-09-19T11:14:28;4.20;;;3.78;;
20348;SDS011;10332;50.208;18.988;2023-09-19T11:30:45;4.68;;;3.85;;
20348;SDS011;10332;50.208;18.988;2023-09-19T11:46:53;4.18;;;3.33;;
20348;SDS011;10332;50.208;18.988;2023-09-19T11:49:29;4.00;;;3.60;;
20348;SDS011;10332;50.208;18.988;2023-09-19T11:51:59;6.68;;;3.70;;
20348;SDS011;10332;50.208;18.988;2023-09-19T11:54:28;4.63;;;3.60;;
20348;SDS011;10332;50.208;18.988;2023-09-19T11:56:58;4.53;;;3.17;;
20348;SDS011;10332;50.208;18.988;2023-09-19T11:59:27;6.15;;;3.63;;
20348;SDS011;10332;50.208;18.988;2023-09-19T12:01:57;8.90;;;6.65;;
20348;SDS011;10332;50.208;18.988;2023-09-19T12:04:34;4.30;;;3.50;;
20348;SDS011;10332;50.208;18.988;2023-09-19T12:07:12;4.85;;;4.10;;
20348;SDS011;10332;50.208;18.988;2023-09-19T12:09:47;5.30;;;3.47;;
20348;SDS011;10332;50.208;18.988;2023-09-19T12:14:49;4.82;;;3.97;;
20348;SDS011;10332;50.208;18.988;2023-09-19T12:17:17;6.18;;;5.13;;
20348;SDS011;10332;50.208;18.988;2023-09-19T12:19:52;5.93;;;4.32;;
20348;SDS011;10332;50.208;18.988;2023-09-19T12:22:20;6.30;;;4.30;;
20348;SDS011;10332;50.208;18.988;2023-09-19T12:24:48;5.00;;;3.50;;
20348;SDS011;10332;50.208;18.988;2023-09-19T12:27:17;6.18;;;4.55;;
20348;SDS011;10332;50.208;18.988;2023-09-19T12:29:48;14.65;;;11.73;;
20348;SDS011;10332;50.208;18.988;2023-09-19T12:32:16;12.57;;;10.50;;
20348;SDS011;10332;50.208;18.988;2023-09-19T12:34:50;7.45;;;5.88;;
20348;SDS011;10332;50.208;18.988;2023-09-19T12:37:20;5.93;;;5.18;;
20348;SDS011;10332;50.208;18.988;2023-09-19T12:39:49;5.82;;;3.97;;
20348;SDS011;10332;50.208;18.988;2023-09-19T12:42:19;5.90;;;4.68;;
20348;SDS011;10332;50.208;18.988;2023-09-19T12:44:51;4.60;;;3.83;;
20348;SDS011;10332;50.208;18.988;2023-09-19T12:47:23;3.25;;;2.95;;
20348;SDS011;10332;50.208;18.988;2023-09-19T12:50:11;4.68;;;3.25;;
20348;SDS011;10332;50.208;18.988;2023-09-19T12:52:46;4.93;;;4.43;;
20348;SDS011;10332;50.208;18.988;2023-09-19T12:55:29;5.70;;;4.75;;
20348;SDS011;10332;50.208;18.988;2023-09-19T12:58:02;7.60;;;5.05;;
20348;SDS011;10332;50.208;18.988;2023-09-19T13:00:40;4.55;;;2.92;;
20348;SDS011;10332;50.208;18.988;2023-09-19T13:03:12;4.38;;;3.10;;
20348;SDS011;10332;50.208;18.988;2023-09-19T13:05:53;4.10;;;3.28;;
20348;SDS011;10332;50.208;18.988;2023-09-19T13:08:27;9.00;;;6.63;;
20348;SDS011;10332;50.208;18.988;2023-09-19T13:11:17;6.45;;;5.15;;
20348;SDS011;10332;50.208;18.988;2023-09-19T13:13:46;14.50;;;11.23;;
20348;SDS011;10332;50.208;18.988;2023-09-19T13:16:17;13.98;;;10.57;;
20348;SDS011;10332;50.208;18.988;2023-09-19T13:18:51;7.15;;;4.18;;
20348;SDS011;10332;50.208;18.988;2023-09-19T13:21:27;3.45;;;3.08;;
20348;SDS011;10332;50.208;18.988;2023-09-19T13:24:20;3.83;;;3.25;;
20348;SDS011;10332;50.208;18.988;2023-09-19T13:26:54;3.20;;;2.88;;
20348;SDS011;10332;50.208;18.988;2023-09-19T13:29:22;6.68;;;3.80;;
20348;SDS011;10332;50.208;18.988;2023-09-19T13:31:51;3.63;;;3.20;;
20348;SDS011;10332;50.208;18.988;2023-09-19T13:34:19;3.47;;;2.83;;
20348;SDS011;10332;50.208;18.988;2023-09-19T13:36:47;2.63;;;2.35;;
20348;SDS011;10332;50.208;18.988;2023-09-19T13:39:16;3.25;;;2.40;;
20348;SDS011;10332;50.208;18.988;2023-09-19T13:41:44;3.65;;;2.70;;
20348;SDS011;10332;50.208;18.988;2023-09-19T13:44:13;3.33;;;2.83;;
20348;SDS011;10332;50.208;18.988;2023-09-19T13:46:41;2.50;;;2.30;;
20348;SDS011;10332;50.208;18.988;2023-09-19T13:49:13;3.95;;;3.30;;
20348;SDS011;10332;50.208;18.988;2023-09-19T13:51:41;5.90;;;4.15;;
20348;SDS011;10332;50.208;18.988;2023-09-19T13:54:11;4.47;;;3.47;;
20348;SDS011;10332;50.208;18.988;2023-09-19T13:56:39;8.23;;;5.80;;
20348;SDS011;10332;50.208;18.988;2023-09-19T13:59:06;5.60;;;5.00;;
20348;SDS011;10332;50.208;18.988;2023-09-19T14:01:34;5.57;;;3.42;;
20348;SDS011;10332;50.208;18.988;2023-09-19T14:04:01;4.07;;;3.28;;
20348;SDS011;10332;50.208;18.988;2023-09-19T14:06:29;3.85;;;2.60;;
20348;SDS011;10332;50.208;18.988;2023-09-19T14:08:56;3.22;;;2.70;;
20348;SDS011;10332;50.208;18.988;2023-09-19T14:11:24;6.03;;;4.00;;
20348;SDS011;10332;50.208;18.988;2023-09-19T14:13:53;3.88;;;3.35;;
20348;SDS011;10332;50.208;18.988;2023-09-19T14:16:23;7.80;;;4.65;;
20348;SDS011;10332;50.208;18.988;2023-09-19T14:18:51;11.07;;;5.20;;
20348;SDS011;10332;50.208;18.988;2023-09-19T14:21:19;6.13;;;4.20;;
20348;SDS011;10332;50.208;18.988;2023-09-19T14:23:46;5.85;;;3.72;;
20348;SDS011;10332;50.208;18.988;2023-09-19T14:26:16;3.53;;;3.08;;
20348;SDS011;10332;50.208;18.988;2023-09-19T14:28:45;5.97;;;2.97;;
20348;SDS011;10332;50.208;18.988;2023-09-19T14:31:12;3.22;;;2.83;;
20348;SDS011;10332;50.208;18.988;2023-09-19T14:33:40;3.55;;;2.70;;
20348;SDS011;10332;50.208;18.988;2023-09-19T14:36:08;2.88;;;2.47;;
20348;SDS011;10332;50.208;18.988;2023-09-19T14:38:37;4.53;;;2.10;;
20348;SDS011;10332;50.208;18.988;2023-09-19T14:41:06;2.35;;;2.15;;
20348;SDS011;10332;50.208;18.988;2023-09-19T14:43:33;2.30;;;2.00;;
20348;SDS011;10332;50.208;18.988;2023-09-19T14:46:04;8.00;;;6.03;;
20348;SDS011;10332;50.208;18.988;2023-09-19T14:48:36;5.28;;;3.97;;
20348;SDS011;10332;50.208;18.988;2023-09-19T14:51:05;12.18;;;9.05;;
20348;SDS011;10332;50.208;18.988;2023-09-19T14:53:35;4.55;;;3.35;;
20348;SDS011;10332;50.208;18.988;2023-09-19T14:56:07;2.25;;;2.03;;
20348;SDS011;10332;50.208;18.988;2023-09-19T14:58:35;3.15;;;2.17;;
20348;SDS011;10332;50.208;18.988;2023-09-19T15:01:07;2.90;;;2.40;;
20348;SDS011;10332;50.208;18.988;2023-09-19T15:03:37;3.08;;;2.00;;
20348;SDS011;10332;50.208;18.988;2023-09-19T15:06:07;3.17;;;2.35;;
20348;SDS011;10332;50.208;18.988;2023-09-19T15:08:36;3.33;;;2.97;;
20348;SDS011;10332;50.208;18.988;2023-09-19T15:11:07;3.97;;;2.83;;
20348;SDS011;10332;50.208;18.988;2023-09-19T15:13:35;4.72;;;3.20;;
20348;SDS011;10332;50.208;18.988;2023-09-19T15:16:06;5.95;;;2.63;;
20348;SDS011;10332;50.208;18.988;2023-09-19T15:18:38;4.25;;;2.50;;
20348;SDS011;10332;50.208;18.988;2023-09-19T15:21:09;4.63;;;2.60;;
20348;SDS011;10332;50.208;18.988;2023-09-19T15:23:39;3.45;;;2.33;;
20348;SDS011;10332;50.208;18.988;2023-09-19T15:26:09;3.80;;;2.42;;
20348;SDS011;10332;50.208;18.988;2023-09-19T15:28:38;3.00;;;2.40;;
20348;SDS011;10332;50.208;18.988;2023-09-19T15:31:08;3.53;;;2.42;;
20348;SDS011;10332;50.208;18.988;2023-09-19T15:33:36;3.55;;;2.60;;
20348;SDS011;10332;50.208;18.988;2023-09-19T15:36:05;4.35;;;3.28;;
20348;SDS011;10332;50.208;18.988;2023-09-19T15:41:30;4.13;;;2.90;;
20348;SDS011;10332;50.208;18.988;2023-09-19T15:43:59;5.88;;;4.35;;
20348;SDS011;10332;50.208;18.988;2023-09-19T15:46:32;4.60;;;3.47;;
20348;SDS011;10332;50.208;18.988;2023-09-19T15:49:02;3.53;;;2.70;;
20348;SDS011;10332;50.208;18.988;2023-09-19T15:51:30;4.32;;;2.55;;
20348;SDS011;10332;50.208;18.988;2023-09-19T15:53:57;4.53;;;2.90;;
20348;SDS011;10332;50.208;18.988;2023-09-19T15:56:27;4.40;;;3.53;;
20348;SDS011;10332;50.208;18.988;2023-09-19T15:58:55;3.33;;;2.83;;
20348;SDS011;10332;50.208;18.988;2023-09-19T16:01:23;4.40;;;4.00;;